Time;durP1;ratioP1;P1;durP2;ratioP2;P2;SDS_P1;SDS_P2;PMS_P1;PMS_P2;Temp;Humidity;BMP_temperature;BMP_pressure;BME280_temperature;BME280_humidity;BME280_pressure;Samples;Min_cycle;Max_cycle;Signal;HPM_P1;HPM_P2
2021/12/11 00:00:56;;;;;;;6.90;6.18;;;;;;;;;;12532167;28;20501;-76
2021/12/11 00:07:02;;;;;;;8.48;7.47;;;;;;;;;;12549248;28;20041;-76
2021/12/11 00:13:07;;;;;;;8.85;7.80;;;;;;;;;;12533033;28;20044;-76
2021/12/11 00:19:10;;;;;;;6.82;6.13;;;;;;;;;;12533255;28;20611;-76
2021/12/11 00:25:13;;;;;;;6.10;5.43;;;;;;;;;;12548801;28;20508;-75
2021/12/11 00:31:15;;;;;;;6.38;5.78;;;;;;;;;;12548972;28;20043;-76
2021/12/11 00:37:19;;;;;;;5.70;5.10;;;;;;;;;;12548522;28;20040;-76
2021/12/11 00:43:27;;;;;;;6.07;5.47;;;;;;;;;;12549259;28;20052;-76
2021/12/11 00:49:30;;;;;;;7.32;6.20;;;;;;;;;;12549506;28;20492;-76
2021/12/11 00:55:34;;;;;;;8.07;6.20;;;;;;;;;;12549205;28;20025;-76
2021/12/11 01:01:38;;;;;;;17.35;11.32;;;;;;;;;;12546782;28;20040;-76
2021/12/11 01:07:40;;;;;;;10.43;8.10;;;;;;;;;;12546917;28;20037;-76
2021/12/11 01:13:50;;;;;;;9.05;7.18;;;;;;;;;;12546145;28;20390;-75
2021/12/11 01:19:55;;;;;;;7.85;5.93;;;;;;;;;;12546497;28;20417;-75
2021/12/11 01:25:57;;;;;;;7.88;6.45;;;;;;;;;;12529245;28;20512;-75
2021/12/11 01:31:59;;;;;;;;;;;;;;;;;;12546465;28;20033;-75
2021/12/11 01:38:05;;;;;;;6.72;5.97;;;;;;;;;;12544806;28;19909;-76
2021/12/11 01:44:13;;;;;;;6.03;5.43;;;;;;;;;;12544798;28;20505;-76
2021/12/11 01:50:41;;;;;;;5.65;5.05;;;;;;;;;;12545661;28;20033;-75
2021/12/11 01:56:46;;;;;;;6.93;6.22;;;;;;;;;;12543137;28;20049;-75
2021/12/11 02:02:49;;;;;;;6.32;5.57;;;;;;;;;;12543908;28;20041;-75
2021/12/11 02:08:51;;;;;;;6.82;5.72;;;;;;;;;;12545401;28;20332;-76
2021/12/11 02:14:55;;;;;;;6.00;5.43;;;;;;;;;;12545408;28;20040;-77
2021/12/11 02:20:59;;;;;;;4.45;4.05;;;;;;;;;;12543633;28;20056;-76
2021/12/11 02:27:01;;;;;;;5.30;4.80;;;;;;;;;;12542581;28;20401;-76
2021/12/11 02:33:10;;;;;;;5.68;5.03;;;;;;;;;;12543247;28;20040;-76
2021/12/11 02:39:19;;;;;;;4.15;3.75;;;;;;;;;;12526981;28;20045;-77
2021/12/11 02:45:24;;;;;;;5.07;4.55;;;;;;;;;;12543773;28;20045;-76
2021/12/11 02:51:31;;;;;;;5.20;4.15;;;;;;;;;;12545507;28;20025;-76
2021/12/11 02:57:35;;;;;;;3.90;3.58;;;;;;;;;;12542661;28;20060;-76
2021/12/11 03:03:42;;;;;;;3.72;3.42;;;;;;;;;;12542969;28;20044;-77
2021/12/11 03:09:46;;;;;;;3.70;3.40;;;;;;;;;;12542701;28;20504;-77
2021/12/11 03:15:49;;;;;;;3.13;2.83;;;;;;;;;;12542307;28;20033;-77
2021/12/11 03:21:51;;;;;;;2.45;2.22;;;;;;;;;;12542968;28;20068;-77
2021/12/11 03:27:54;;;;;;;3.00;2.70;;;;;;;;;;12525388;28;20041;-76
2021/12/11 03:33:57;;;;;;;3.93;3.60;;;;;;;;;;12544864;28;20048;-77
2021/12/11 03:39:59;;;;;;;3.67;3.38;;;;;;;;;;12534987;28;20029;-77
2021/12/11 03:46:02;;;;;;;3.75;3.45;;;;;;;;;;12551020;28;20040;-76
2021/12/11 03:52:06;;;;;;;3.13;2.83;;;;;;;;;;12550965;28;20273;-76
2021/12/11 03:58:08;;;;;;;3.33;2.97;;;;;;;;;;12549723;28;20037;-77
2021/12/11 04:04:37;;;;;;;3.10;2.47;;;;;;;;;;12549951;28;20048;-76
2021/12/11 04:10:39;;;;;;;3.55;3.25;;;;;;;;;;12548996;28;20512;-76
2021/12/11 04:16:41;;;;;;;3.33;2.80;;;;;;;;;;12549481;28;20374;-76
2021/12/11 04:22:44;;;;;;;3.17;2.88;;;;;;;;;;12548727;28;20482;-76
2021/12/11 04:28:46;;;;;;;3.17;2.85;;;;;;;;;;12548211;28;20041;-75
2021/12/11 04:34:49;;;;;;;3.33;2.88;;;;;;;;;;12549488;28;20041;-75
2021/12/11 04:40:55;;;;;;;3.73;3.33;;;;;;;;;;12547876;28;20029;-76
2021/12/11 04:46:57;;;;;;;3.20;2.90;;;;;;;;;;12546875;28;20303;-76
2021/12/11 04:52:59;;;;;;;3.45;2.67;;;;;;;;;;12548636;28;20035;-77
2021/12/11 05:11:45;;;;;;;3.00;2.72;;;;;;;;;;12546457;28;20052;-77
2021/12/11 05:17:47;;;;;;;3.20;2.90;;;;;;;;;;12546380;28;20045;-77
2021/12/11 05:23:50;;;;;;;2.97;2.75;;;;;;;;;;12529429;28;20421;-77
2021/12/11 05:29:52;;;;;;;3.35;2.80;;;;;;;;;;12545614;28;20036;-76
2021/12/11 05:35:54;;;;;;;4.10;3.80;;;;;;;;;;12545276;28;20055;-76
2021/12/11 05:41:57;;;;;;;3.53;3.03;;;;;;;;;;12544975;28;20298;-76
2021/12/11 05:47:59;;;;;;;2.05;1.95;;;;;;;;;;12544896;28;20044;-77
2021/12/11 05:54:01;;;;;;;2.92;2.72;;;;;;;;;;12527755;28;20500;-77
2021/12/11 06:00:08;;;;;;;3.22;2.92;;;;;;;;;;12543717;28;20507;-77
2021/12/11 06:06:10;;;;;;;2.90;2.53;;;;;;;;;;12543862;28;20498;-76
2021/12/11 06:12:13;;;;;;;3.50;3.23;;;;;;;;;;12527100;28;20036;-77
2021/12/11 06:18:18;;;;;;;3.92;2.97;;;;;;;;;;12543412;28;20061;-77
2021/12/11 06:24:20;;;;;;;3.20;2.65;;;;;;;;;;12544997;28;20045;-77
2021/12/11 06:30:22;;;;;;;3.40;3.10;;;;;;;;;;12544371;28;20032;-77
2021/12/11 06:36:24;;;;;;;3.53;2.78;;;;;;;;;;12543935;28;20771;-77
2021/12/11 06:42:26;;;;;;;3.37;3.07;;;;;;;;;;12543681;28;20045;-77
2021/12/11 06:48:28;;;;;;;4.17;3.10;;;;;;;;;;12542749;28;20043;-77
2021/12/11 06:54:30;;;;;;;4.10;3.40;;;;;;;;;;12542109;28;20033;-77
2021/12/11 07:00:32;;;;;;;4.10;3.75;;;;;;;;;;12541936;28;20041;-77
2021/12/11 07:06:34;;;;;;;4.25;3.85;;;;;;;;;;12542523;28;20047;-77
2021/12/11 07:12:36;;;;;;;3.90;3.33;;;;;;;;;;12550730;28;20039;-77
2021/12/11 07:18:39;;;;;;;4.25;3.55;;;;;;;;;;12551678;28;20072;-77
2021/12/11 07:24:43;;;;;;;5.75;3.95;;;;;;;;;;12551081;28;20052;-77
2021/12/11 07:30:46;;;;;;;5.85;4.45;;;;;;;;;;12552055;28;20485;-77
2021/12/11 07:36:50;;;;;;;6.25;5.65;;;;;;;;;;12534138;28;20041;-76
2021/12/11 07:42:52;;;;;;;4.95;4.55;;;;;;;;;;12551589;28;20045;-76
2021/12/11 07:48:56;;;;;;;3.23;3.00;;;;;;;;;;12552056;28;20351;-76
2021/12/11 07:54:58;;;;;;;6.80;6.20;;;;;;;;;;12551094;28;20040;-77
2021/12/11 08:01:00;;;;;;;5.50;4.95;;;;;;;;;;12550576;28;20041;-76
2021/12/11 08:07:08;;;;;;;5.15;4.70;;;;;;;;;;12550255;28;20045;-76
2021/12/11 08:13:11;;;;;;;6.30;5.35;;;;;;;;;;12550291;28;20048;-77
2021/12/11 08:19:14;;;;;;;8.45;7.10;;;;;;;;;;12548587;28;20371;-76
2021/12/11 08:25:16;;;;;;;6.85;6.18;;;;;;;;;;12549260;28;20041;-76
2021/12/11 08:31:18;;;;;;;10.02;9.00;;;;;;;;;;12549362;28;20045;-77
2021/12/11 08:37:21;;;;;;;8.75;7.03;;;;;;;;;;12547850;28;20041;-76
2021/12/11 08:43:23;;;;;;;8.02;7.28;;;;;;;;;;12547327;28;20071;-77
2021/12/11 08:49:27;;;;;;;8.68;7.88;;;;;;;;;;12548094;28;20033;-77
2021/12/11 08:55:30;;;;;;;8.40;7.68;;;;;;;;;;12547498;28;20033;-77
2021/12/11 09:01:35;;;;;;;8.57;7.55;;;;;;;;;;12546421;28;20029;-75
2021/12/11 09:07:40;;;;;;;13.00;11.45;;;;;;;;;;12547832;28;20041;-76
2021/12/11 09:13:42;;;;;;;10.02;8.63;;;;;;;;;;12547307;28;20036;-76
2021/12/11 09:19:52;;;;;;;8.95;8.02;;;;;;;;;;12546051;28;20053;-76
2021/12/11 09:25:56;;;;;;;7.95;7.18;;;;;;;;;;12546946;28;20053;-76
2021/12/11 09:32:17;;;;;;;6.53;5.90;;;;;;;;;;12528582;28;20029;-76
2021/12/11 09:38:22;;;;;;;7.47;6.22;;;;;;;;;;12545057;28;20048;-76
2021/12/11 09:44:33;;;;;;;6.65;5.63;;;;;;;;;;12544424;28;20052;-75
2021/12/11 09:50:45;;;;;;;7.72;6.93;;;;;;;;;;12544846;28;20037;-75
2021/12/11 09:56:52;;;;;;;8.07;7.38;;;;;;;;;;12544016;28;20048;-76
2021/12/11 10:02:54;;;;;;;5.90;5.35;;;;;;;;;;12543624;28;20044;-76
2021/12/11 10:09:09;;;;;;;5.20;4.70;;;;;;;;;;12543803;28;20041;-76
2021/12/11 10:15:17;;;;;;;5.97;5.45;;;;;;;;;;12543597;28;20040;-76
2021/12/11 10:21:27;;;;;;;4.57;3.80;;;;;;;;;;12544657;28;20065;-75
2021/12/11 10:27:30;;;;;;;3.90;3.50;;;;;;;;;;12544064;28;20056;-76
2021/12/11 10:33:32;;;;;;;3.65;3.28;;;;;;;;;;12544143;28;20036;-76
2021/12/11 10:39:35;;;;;;;4.40;3.53;;;;;;;;;;12542710;28;20040;-75
2021/12/11 10:45:37;;;;;;;;;;;;;;;;;;12541902;28;20497;-76
2021/12/11 10:51:44;;;;;;;3.60;3.30;;;;;;;;;;12543181;28;19908;-77
2021/12/11 10:57:46;;;;;;;3.65;3.17;;;;;;;;;;12544571;28;20060;-77
2021/12/11 11:03:53;;;;;;;3.00;2.80;;;;;;;;;;12543381;28;20041;-77
2021/12/11 11:09:58;;;;;;;2.50;2.30;;;;;;;;;;12543208;28;20033;-76
2021/12/11 11:16:00;;;;;;;3.55;2.45;;;;;;;;;;12541892;28;20040;-77
2021/12/11 11:22:04;;;;;;;2.85;2.55;;;;;;;;;;12525469;28;20053;-76
2021/12/11 11:28:07;;;;;;;6.90;4.50;;;;;;;;;;12542714;28;20048;-75
2021/12/11 11:34:11;;;;;;;5.55;3.17;;;;;;;;;;12543670;28;20482;-76
2021/12/11 11:40:15;;;;;;;2.50;2.28;;;;;;;;;;12559379;28;20029;-76
2021/12/11 11:46:17;;;;;;;5.53;3.80;;;;;;;;;;12542910;28;20060;-76
2021/12/11 11:52:20;;;;;;;2.80;2.37;;;;;;;;;;12541951;28;20474;-77
2021/12/11 11:58:21;;;;;;;2.63;2.37;;;;;;;;;;12530438;28;20501;-76
2021/12/11 12:04:24;;;;;;;2.63;2.43;;;;;;;;;;12532984;28;20278;-77
2021/12/11 12:10:27;;;;;;;3.83;2.77;;;;;;;;;;12549273;28;20048;-77
2021/12/11 12:16:29;;;;;;;;;;;;;;;;;;12549357;28;20040;-77
2021/12/11 12:22:30;;;;;;;1.83;1.67;;;;;;;;;;12549421;28;19925;-77
2021/12/11 12:28:33;;;;;;;2.13;1.92;;;;;;;;;;12548421;28;20505;-77
2021/12/11 12:34:35;;;;;;;1.80;1.70;;;;;;;;;;12549380;28;20044;-74
2021/12/11 12:40:45;;;;;;;1.45;1.13;;;;;;;;;;12547910;28;20033;-75
2021/12/11 12:47:05;;;;;;;3.08;2.17;;;;;;;;;;12547292;28;20052;-76
2021/12/11 12:53:08;;;;;;;4.30;3.00;;;;;;;;;;12547206;28;20037;-76
2021/12/11 12:59:10;;;;;;;11.18;7.55;;;;;;;;;;12546819;28;20028;-77
2021/12/11 13:05:15;;;;;;;5.05;3.70;;;;;;;;;;12530077;28;20053;-77
2021/12/11 13:11:20;;;;;;;4.40;2.90;;;;;;;;;;12545792;28;20037;-77
2021/12/11 13:17:28;;;;;;;2.67;2.25;;;;;;;;;;12546943;28;20486;-76
2021/12/11 13:23:32;;;;;;;22.10;14.27;;;;;;;;;;12529157;28;20406;-77
2021/12/11 13:29:37;;;;;;;5.43;4.57;;;;;;;;;;12529205;28;20473;-76
2021/12/11 13:35:43;;;;;;;3.05;2.65;;;;;;;;;;12528343;28;20036;-77
2021/12/11 13:41:50;;;;;;;2.60;2.38;;;;;;;;;;12528452;28;20398;-76
2021/12/11 13:47:52;;;;;;;2.33;2.08;;;;;;;;;;12544874;28;20064;-76
2021/12/11 13:53:56;;;;;;;2.90;2.60;;;;;;;;;;12544447;28;20033;-77
2021/12/11 14:00:01;;;;;;;4.00;3.70;;;;;;;;;;12543890;28;20717;-76
2021/12/11 14:06:05;;;;;;;3.03;2.03;;;;;;;;;;12527117;28;20041;-77
2021/12/11 14:12:07;;;;;;;3.00;2.65;;;;;;;;;;12527049;28;20043;-77
2021/12/11 14:18:10;;;;;;;3.67;2.85;;;;;;;;;;12543551;28;20052;-77
2021/12/11 14:24:13;;;;;;;2.90;2.53;;;;;;;;;;12543361;28;20041;-76
2021/12/11 14:30:19;;;;;;;3.63;3.03;;;;;;;;;;12525918;28;20040;-76
2021/12/11 14:36:22;;;;;;;2.47;2.08;;;;;;;;;;12526182;28;20048;-76
2021/12/11 14:42:26;;;;;;;7.20;4.53;;;;;;;;;;12543982;28;20029;-77
2021/12/11 14:48:29;;;;;;;2.85;2.47;;;;;;;;;;12542645;28;20049;-77
2021/12/11 14:54:30;;;;;;;;;;;;;;;;;;12542570;28;20044;-77
2021/12/11 15:00:33;;;;;;;2.63;2.28;;;;;;;;;;12525726;28;20373;-77
2021/12/11 15:06:36;;;;;;;3.55;2.80;;;;;;;;;;12542265;28;20045;-76
2021/12/11 15:12:38;;;;;;;2.10;1.80;;;;;;;;;;12541874;28;20037;-76
2021/12/11 15:18:40;;;;;;;1.63;1.53;;;;;;;;;;12542712;28;20189;-77
2021/12/11 15:24:43;;;;;;;1.90;1.50;;;;;;;;;;12541728;28;20053;-77
2021/12/11 15:30:48;;;;;;;2.08;1.88;;;;;;;;;;12545723;28;20359;-76
2021/12/11 15:36:50;;;;;;;2.20;1.75;;;;;;;;;;12550894;28;20397;-76
2021/12/11 15:42:52;;;;;;;1.73;1.33;;;;;;;;;;12550296;28;20381;-76
2021/12/11 15:48:57;;;;;;;1.65;1.55;;;;;;;;;;12550727;28;20052;-76
2021/12/11 15:54:58;;;;;;;3.03;2.20;;;;;;;;;;12550047;28;20041;-76
2021/12/11 16:01:05;;;;;;;4.10;2.22;;;;;;;;;;12550587;28;20060;-76
2021/12/11 16:07:09;;;;;;;2.17;1.92;;;;;;;;;;12549502;28;20068;-76
2021/12/11 16:13:12;;;;;;;2.00;1.88;;;;;;;;;;12513645;28;20044;-78
2021/12/11 16:19:14;;;;;;;4.95;2.20;;;;;;;;;;12498908;28;20406;-76
2021/12/11 16:25:19;;;;;;;3.57;2.30;;;;;;;;;;12500048;28;20046;-75
2021/12/11 16:31:21;;;;;;;2.72;2.47;;;;;;;;;;12499130;28;20037;-77
2021/12/11 16:37:33;;;;;;;4.10;3.00;;;;;;;;;;12498872;28;20398;-77
2021/12/11 16:43:36;;;;;;;3.17;2.70;;;;;;;;;;12480987;28;20041;-77
2021/12/11 16:49:39;;;;;;;4.60;2.95;;;;;;;;;;12499084;28;20634;-76
2021/12/11 16:55:41;;;;;;;4.07;3.03;;;;;;;;;;12499154;28;20041;-76
2021/12/11 17:01:45;;;;;;;3.70;3.20;;;;;;;;;;12497673;28;20036;-77
2021/12/11 17:07:47;;;;;;;4.70;3.88;;;;;;;;;;12497297;28;20042;-75
2021/12/11 17:13:51;;;;;;;5.63;4.30;;;;;;;;;;12480436;28;20032;-76
2021/12/11 17:19:53;;;;;;;5.78;5.03;;;;;;;;;;12497535;28;20049;-76
2021/12/11 17:25:57;;;;;;;10.20;5.97;;;;;;;;;;12496419;28;20048;-76
2021/12/11 17:31:59;;;;;;;8.48;7.28;;;;;;;;;;12479647;28;20033;-77
2021/12/11 17:38:00;;;;;;;10.07;8.73;;;;;;;;;;12496904;28;20034;-76
2021/12/11 17:44:03;;;;;;;8.15;6.22;;;;;;;;;;12479202;28;20041;-76
2021/12/11 17:50:06;;;;;;;11.63;8.90;;;;;;;;;;12495167;28;20044;-74
2021/12/11 17:56:10;;;;;;;11.80;9.65;;;;;;;;;;12496279;28;20045;-77
2021/12/11 18:02:17;;;;;;;13.85;9.90;;;;;;;;;;12494930;28;20040;-75
2021/12/11 18:08:22;;;;;;;19.35;14.90;;;;;;;;;;12478145;28;20494;-77
2021/12/11 18:14:27;;;;;;;12.18;9.02;;;;;;;;;;12494049;28;20036;-76
2021/12/11 18:20:31;;;;;;;12.23;10.20;;;;;;;;;;12494152;28;20076;-76
2021/12/11 18:26:35;;;;;;;13.18;10.25;;;;;;;;;;12494687;28;20053;-76
2021/12/11 18:32:39;;;;;;;16.50;10.43;;;;;;;;;;12494252;28;20487;-76
2021/12/11 18:38:41;;;;;;;;;;;;;;;;;;12493971;28;20041;-77
2021/12/11 18:44:43;;;;;;;13.60;10.77;;;;;;;;;;12494343;28;20293;-77
2021/12/11 18:50:47;;;;;;;15.88;11.95;;;;;;;;;;12493303;28;20036;-77
2021/12/11 18:56:50;;;;;;;18.92;14.30;;;;;;;;;;12492963;28;20053;-76
2021/12/11 19:02:52;;;;;;;12.77;10.65;;;;;;;;;;12493472;28;20045;-76
2021/12/11 19:08:55;;;;;;;10.77;9.67;;;;;;;;;;12485379;28;20029;-77
2021/12/11 19:14:59;;;;;;;13.13;11.73;;;;;;;;;;12485941;28;20201;-77
2021/12/11 19:21:03;;;;;;;14.57;12.85;;;;;;;;;;12502659;28;20696;-77
2021/12/11 19:27:06;;;;;;;21.02;16.42;;;;;;;;;;12501927;28;20045;-77
2021/12/11 19:33:13;;;;;;;20.90;17.50;;;;;;;;;;12501925;28;20052;-76
2021/12/11 19:39:18;;;;;;;18.75;16.45;;;;;;;;;;12485102;28;20037;-77
2021/12/11 19:45:20;;;;;;;17.17;15.35;;;;;;;;;;12501956;28;20083;-76
2021/12/11 19:51:25;;;;;;;23.80;18.83;;;;;;;;;;12484038;28;20038;-76
2021/12/11 19:57:28;;;;;;;22.08;19.80;;;;;;;;;;12500272;28;20402;-77
2021/12/11 20:03:31;;;;;;;17.13;15.32;;;;;;;;;;12500496;28;20029;-76
2021/12/11 20:09:33;;;;;;;;;;;;;;;;;;12500550;28;20402;-75
2021/12/11 20:15:36;;;;;;;21.02;17.55;;;;;;;;;;12499799;28;20355;-76
2021/12/11 20:21:42;;;;;;;24.85;22.23;;;;;;;;;;12499877;28;20597;-76
2021/12/11 20:27:44;;;;;;;26.38;22.67;;;;;;;;;;12499023;28;20045;-77
2021/12/11 20:33:47;;;;;;;26.13;23.30;;;;;;;;;;12499144;28;20044;-77
2021/12/11 20:39:49;;;;;;;27.27;24.38;;;;;;;;;;12498884;28;20391;-77
2021/12/11 20:45:53;;;;;;;25.10;22.40;;;;;;;;;;12498259;28;20047;-77
2021/12/11 20:51:55;;;;;;;26.95;24.13;;;;;;;;;;12482477;28;20033;-76
2021/12/11 20:57:58;;;;;;;22.25;19.92;;;;;;;;;;12497883;28;20036;-77
2021/12/11 21:04:10;;;;;;;22.35;19.95;;;;;;;;;;12497412;28;20083;-77
2021/12/11 21:10:15;;;;;;;26.65;21.40;;;;;;;;;;12481045;28;20049;-77
2021/12/11 21:16:17;;;;;;;23.52;21.02;;;;;;;;;;12497231;28;20039;-76
2021/12/11 21:22:23;;;;;;;25.15;22.15;;;;;;;;;;12497151;28;20410;-76
2021/12/11 21:28:27;;;;;;;22.38;19.98;;;;;;;;;;12479720;28;20402;-77
2021/12/11 21:34:29;;;;;;;37.17;29.80;;;;;;;;;;12495952;28;20043;-77
2021/12/11 21:40:40;;;;;;;25.50;22.70;;;;;;;;;;12496007;28;20036;-76
2021/12/11 21:46:46;;;;;;;33.50;28.67;;;;;;;;;;12495362;28;20048;-76
2021/12/11 21:52:48;;;;;;;33.42;28.77;;;;;;;;;;12479588;28;20045;-76
2021/12/11 21:58:53;;;;;;;22.67;20.17;;;;;;;;;;12495383;28;20037;-76
2021/12/11 22:04:58;;;;;;;30.02;27.02;;;;;;;;;;12478713;28;20046;-77
2021/12/11 22:11:02;;;;;;;28.98;25.98;;;;;;;;;;12494890;28;20041;-77
2021/12/11 22:17:05;;;;;;;41.97;37.80;;;;;;;;;;12477469;28;20033;-77
2021/12/11 22:23:07;;;;;;;30.13;24.75;;;;;;;;;;12494189;28;20038;-77
2021/12/11 22:29:11;;;;;;;36.97;32.28;;;;;;;;;;12494938;28;20519;-76
2021/12/11 22:35:14;;;;;;;47.08;39.30;;;;;;;;;;12477446;28;20034;-77
2021/12/11 22:41:19;;;;;;;39.33;33.90;;;;;;;;;;12493928;28;20048;-76
2021/12/11 22:47:27;;;;;;;35.50;31.83;;;;;;;;;;12493248;28;20064;-76
2021/12/11 22:53:32;;;;;;;36.45;32.53;;;;;;;;;;12493300;28;20410;-77
2021/12/11 22:59:35;;;;;;;35.17;31.38;;;;;;;;;;12493693;28;20040;-77
2021/12/11 23:05:37;;;;;;;30.65;27.40;;;;;;;;;;12494175;28;20045;-77
2021/12/11 23:11:42;;;;;;;41.22;36.67;;;;;;;;;;12494211;28;20033;-77
2021/12/11 23:17:49;;;;;;;37.80;32.65;;;;;;;;;;12492743;28;20053;-76
2021/12/11 23:23:58;;;;;;;37.67;33.63;;;;;;;;;;12492593;28;20034;-77
2021/12/11 23:30:12;;;;;;;27.00;24.15;;;;;;;;;;12493687;28;20033;-76
2021/12/11 23:36:17;;;;;;;32.80;29.52;;;;;;;;;;12492362;28;20041;-76
2021/12/11 23:42:24;;;;;;;39.65;35.35;;;;;;;;;;12492089;28;20398;-76
2021/12/11 23:48:28;;;;;;;38.05;34.20;;;;;;;;;;12492298;28;20482;-77
2021/12/11 23:54:29;;;;;;;;;;;;;;;;;;12499923;28;20042;-77
